sensor_id;sensor_type;location;lat;lon;timestamp;temperature;humidity
31837;DHT22;18401;49.344;6.240;2022-12-18T00:01:50;-8.50;99.90
31837;DHT22;18401;49.344;6.240;2022-12-18T00:04:21;-8.50;99.90
31837;DHT22;18401;49.344;6.240;2022-12-18T00:06:47;-8.40;99.90
31837;DHT22;18401;49.344;6.240;2022-12-18T00:09:13;-8.40;99.90
31837;DHT22;18401;49.344;6.240;2022-12-18T00:11:38;-8.40;99.90
31837;DHT22;18401;49.344;6.240;2022-12-18T00:14:04;-8.40;99.90
31837;DHT22;18401;49.344;6.240;2022-12-18T00:16:30;-8.40;99.90
31837;DHT22;18401;49.344;6.240;2022-12-18T00:18:59;-8.40;99.90
31837;DHT22;18401;49.344;6.240;2022-12-18T00:21:26;-8.40;99.90
31837;DHT22;18401;49.344;6.240;2022-12-18T00:23:52;-8.40;99.90
31837;DHT22;18401;49.344;6.240;2022-12-18T00:26:20;-8.30;99.90
31837;DHT22;18401;49.344;6.240;2022-12-18T00:28:47;-8.30;99.90
31837;DHT22;18401;49.344;6.240;2022-12-18T00:31:18;-8.30;99.90
31837;DHT22;18401;49.344;6.240;2022-12-18T00:33:44;-8.40;99.90
31837;DHT22;18401;49.344;6.240;2022-12-18T00:36:12;-8.50;99.90
31837;DHT22;18401;49.344;6.240;2022-12-18T00:38:39;-8.50;99.90
31837;DHT22;18401;49.344;6.240;2022-12-18T00:41:06;-8.50;99.90
31837;DHT22;18401;49.344;6.240;2022-12-18T00:43:35;-8.50;99.90
31837;DHT22;18401;49.344;6.240;2022-12-18T00:46:01;-8.50;99.90
31837;DHT22;18401;49.344;6.240;2022-12-18T00:48:27;-8.50;99.90
31837;DHT22;18401;49.344;6.240;2022-12-18T00:50:52;-8.50;99.90
31837;DHT22;18401;49.344;6.240;2022-12-18T00:53:18;-8.60;99.90
31837;DHT22;18401;49.344;6.240;2022-12-18T00:55:44;-8.60;99.90
31837;DHT22;18401;49.344;6.240;2022-12-18T00:58:11;-8.70;99.90
31837;DHT22;18401;49.344;6.240;2022-12-18T01:00:37;-8.70;99.90
31837;DHT22;18401;49.344;6.240;2022-12-18T01:03:03;-8.60;99.90
31837;DHT22;18401;49.344;6.240;2022-12-18T01:05:29;-8.50;99.90
31837;DHT22;18401;49.344;6.240;2022-12-18T01:07:56;-8.50;99.90
31837;DHT22;18401;49.344;6.240;2022-12-18T01:10:22;-8.60;99.90
31837;DHT22;18401;49.344;6.240;2022-12-18T01:12:48;-8.70;99.90
31837;DHT22;18401;49.344;6.240;2022-12-18T01:15:14;-8.60;99.90
31837;DHT22;18401;49.344;6.240;2022-12-18T01:17:41;-8.60;99.90
31837;DHT22;18401;49.344;6.240;2022-12-18T01:20:07;-8.70;99.90
31837;DHT22;18401;49.344;6.240;2022-12-18T01:22:34;-8.70;99.90
31837;DHT22;18401;49.344;6.240;2022-12-18T01:25:00;-8.80;99.90
31837;DHT22;18401;49.344;6.240;2022-12-18T01:27:25;-8.90;99.90
31837;DHT22;18401;49.344;6.240;2022-12-18T01:29:51;-9.00;99.90
31837;DHT22;18401;49.344;6.240;2022-12-18T01:32:17;-9.00;99.90
31837;DHT22;18401;49.344;6.240;2022-12-18T01:34:43;-9.00;99.90
31837;DHT22;18401;49.344;6.240;2022-12-18T01:37:08;-8.90;99.90
31837;DHT22;18401;49.344;6.240;2022-12-18T01:39:34;-9.00;99.90
31837;DHT22;18401;49.344;6.240;2022-12-18T01:42:12;-9.20;99.90
31837;DHT22;18401;49.344;6.240;2022-12-18T01:47:23;-9.50;99.90
31837;DHT22;18401;49.344;6.240;2022-12-18T01:49:49;-9.60;99.90
31837;DHT22;18401;49.344;6.240;2022-12-18T01:52:16;-9.60;99.90
31837;DHT22;18401;49.344;6.240;2022-12-18T01:54:42;-9.60;99.90
31837;DHT22;18401;49.344;6.240;2022-12-18T01:57:08;-9.70;99.90
31837;DHT22;18401;49.344;6.240;2022-12-18T01:59:35;-9.70;99.90
31837;DHT22;18401;49.344;6.240;2022-12-18T02:02:01;-9.80;99.90
31837;DHT22;18401;49.344;6.240;2022-12-18T02:04:28;-9.80;99.90
31837;DHT22;18401;49.344;6.240;2022-12-18T02:09:51;-9.70;99.90
31837;DHT22;18401;49.344;6.240;2022-12-18T02:12:23;-9.60;99.90
31837;DHT22;18401;49.344;6.240;2022-12-18T02:15:00;-9.60;99.90
31837;DHT22;18401;49.344;6.240;2022-12-18T02:20:21;-9.70;99.90
31837;DHT22;18401;49.344;6.240;2022-12-18T02:28:10;-9.70;99.90
31837;DHT22;18401;49.344;6.240;2022-12-18T02:30:37;-9.60;99.90
31837;DHT22;18401;49.344;6.240;2022-12-18T02:33:07;-9.50;99.90
31837;DHT22;18401;49.344;6.240;2022-12-18T02:35:34;-9.40;99.90
31837;DHT22;18401;49.344;6.240;2022-12-18T02:38:03;-9.40;99.90
31837;DHT22;18401;49.344;6.240;2022-12-18T02:40:30;-9.50;99.90
31837;DHT22;18401;49.344;6.240;2022-12-18T02:43:02;-9.50;99.90
31837;DHT22;18401;49.344;6.240;2022-12-18T02:45:28;-9.50;99.90
31837;DHT22;18401;49.344;6.240;2022-12-18T02:47:54;-9.50;99.90
31837;DHT22;18401;49.344;6.240;2022-12-18T02:51:03;-9.60;99.90
31837;DHT22;18401;49.344;6.240;2022-12-18T02:53:40;-9.80;99.90
31837;DHT22;18401;49.344;6.240;2022-12-18T02:56:30;-9.80;99.90
31837;DHT22;18401;49.344;6.240;2022-12-18T02:59:12;-9.80;99.90
31837;DHT22;18401;49.344;6.240;2022-12-18T03:01:48;-9.70;99.90
31837;DHT22;18401;49.344;6.240;2022-12-18T03:04:20;-9.60;99.90
31837;DHT22;18401;49.344;6.240;2022-12-18T03:06:56;-9.50;99.90
31837;DHT22;18401;49.344;6.240;2022-12-18T03:09:43;-9.50;99.90
31837;DHT22;18401;49.344;6.240;2022-12-18T03:12:20;-9.50;99.90
31837;DHT22;18401;49.344;6.240;2022-12-18T03:15:29;-9.50;99.90
31837;DHT22;18401;49.344;6.240;2022-12-18T03:18:10;-9.50;99.90
31837;DHT22;18401;49.344;6.240;2022-12-18T03:20:40;-9.50;99.90
31837;DHT22;18401;49.344;6.240;2022-12-18T03:23:15;-9.50;99.90
31837;DHT22;18401;49.344;6.240;2022-12-18T03:25:44;-9.50;99.90
31837;DHT22;18401;49.344;6.240;2022-12-18T03:28:20;-9.60;99.90
31837;DHT22;18401;49.344;6.240;2022-12-18T03:30:49;-9.70;99.90
31837;DHT22;18401;49.344;6.240;2022-12-18T03:35:56;-9.60;99.90
31837;DHT22;18401;49.344;6.240;2022-12-18T03:38:22;-9.60;99.90
31837;DHT22;18401;49.344;6.240;2022-12-18T03:41:26;-9.70;99.90
31837;DHT22;18401;49.344;6.240;2022-12-18T03:49:15;-9.80;99.90
31837;DHT22;18401;49.344;6.240;2022-12-18T03:51:48;-9.80;99.90
31837;DHT22;18401;49.344;6.240;2022-12-18T03:54:16;-10.00;99.90
31837;DHT22;18401;49.344;6.240;2022-12-18T03:56:46;-10.10;99.90
31837;DHT22;18401;49.344;6.240;2022-12-18T03:59:14;-10.20;99.90
31837;DHT22;18401;49.344;6.240;2022-12-18T04:01:45;-10.10;99.90
31837;DHT22;18401;49.344;6.240;2022-12-18T04:04:13;-10.10;99.90
31837;DHT22;18401;49.344;6.240;2022-12-18T04:06:41;-10.10;99.90
31837;DHT22;18401;49.344;6.240;2022-12-18T04:09:07;-10.00;99.90
31837;DHT22;18401;49.344;6.240;2022-12-18T04:11:33;-10.10;99.90
31837;DHT22;18401;49.344;6.240;2022-12-18T04:13:59;-10.20;99.90
31837;DHT22;18401;49.344;6.240;2022-12-18T04:16:26;-10.30;99.90
31837;DHT22;18401;49.344;6.240;2022-12-18T04:18:52;-10.30;99.90
31837;DHT22;18401;49.344;6.240;2022-12-18T04:21:18;-10.40;99.90
31837;DHT22;18401;49.344;6.240;2022-12-18T04:23:44;-10.40;99.90
31837;DHT22;18401;49.344;6.240;2022-12-18T04:26:10;-10.40;99.90
31837;DHT22;18401;49.344;6.240;2022-12-18T04:28:36;-10.40;99.90
31837;DHT22;18401;49.344;6.240;2022-12-18T04:31:01;-10.40;99.90
31837;DHT22;18401;49.344;6.240;2022-12-18T04:33:27;-10.30;99.90
31837;DHT22;18401;49.344;6.240;2022-12-18T04:35:53;-10.30;99.90
31837;DHT22;18401;49.344;6.240;2022-12-18T04:38:19;-10.30;99.90
31837;DHT22;18401;49.344;6.240;2022-12-18T04:40:44;-10.30;99.90
31837;DHT22;18401;49.344;6.240;2022-12-18T04:43:10;-10.30;99.90
31837;DHT22;18401;49.344;6.240;2022-12-18T04:45:36;-10.20;99.90
31837;DHT22;18401;49.344;6.240;2022-12-18T04:48:02;-10.20;99.90
31837;DHT22;18401;49.344;6.240;2022-12-18T04:50:28;-10.30;99.90
31837;DHT22;18401;49.344;6.240;2022-12-18T04:52:55;-10.30;99.90
31837;DHT22;18401;49.344;6.240;2022-12-18T04:55:21;-10.40;99.90
31837;DHT22;18401;49.344;6.240;2022-12-18T04:57:46;-10.40;99.90
31837;DHT22;18401;49.344;6.240;2022-12-18T05:00:13;-10.40;99.90
31837;DHT22;18401;49.344;6.240;2022-12-18T05:02:38;-10.50;99.90
31837;DHT22;18401;49.344;6.240;2022-12-18T05:05:04;-10.50;99.90
31837;DHT22;18401;49.344;6.240;2022-12-18T05:07:30;-10.50;99.90
31837;DHT22;18401;49.344;6.240;2022-12-18T05:09:56;-10.60;99.90
31837;DHT22;18401;49.344;6.240;2022-12-18T05:12:25;-10.60;99.90
31837;DHT22;18401;49.344;6.240;2022-12-18T05:14:50;-10.60;99.90
31837;DHT22;18401;49.344;6.240;2022-12-18T05:17:16;-10.60;99.90
31837;DHT22;18401;49.344;6.240;2022-12-18T05:19:42;-10.60;99.90
31837;DHT22;18401;49.344;6.240;2022-12-18T05:22:07;-10.60;99.90
31837;DHT22;18401;49.344;6.240;2022-12-18T05:24:33;-10.60;99.90
31837;DHT22;18401;49.344;6.240;2022-12-18T05:26:59;-10.60;99.90
31837;DHT22;18401;49.344;6.240;2022-12-18T05:29:25;-10.60;99.90
31837;DHT22;18401;49.344;6.240;2022-12-18T05:31:50;-10.60;99.90
31837;DHT22;18401;49.344;6.240;2022-12-18T05:34:16;-10.60;99.90
31837;DHT22;18401;49.344;6.240;2022-12-18T05:36:42;-10.70;99.90
31837;DHT22;18401;49.344;6.240;2022-12-18T05:39:08;-10.60;99.90
31837;DHT22;18401;49.344;6.240;2022-12-18T05:41:33;-10.60;99.90
31837;DHT22;18401;49.344;6.240;2022-12-18T05:43:59;-10.70;99.90
31837;DHT22;18401;49.344;6.240;2022-12-18T05:46:25;-10.70;99.90
31837;DHT22;18401;49.344;6.240;2022-12-18T05:48:51;-10.70;99.90
31837;DHT22;18401;49.344;6.240;2022-12-18T05:51:20;-10.70;99.90
31837;DHT22;18401;49.344;6.240;2022-12-18T05:53:46;-10.60;99.90
31837;DHT22;18401;49.344;6.240;2022-12-18T05:56:15;-10.60;99.90
31837;DHT22;18401;49.344;6.240;2022-12-18T05:58:41;-10.60;99.90
31837;DHT22;18401;49.344;6.240;2022-12-18T06:01:13;-10.60;99.90
31837;DHT22;18401;49.344;6.240;2022-12-18T06:03:39;-10.70;99.90
31837;DHT22;18401;49.344;6.240;2022-12-18T06:06:19;-10.80;99.90
31837;DHT22;18401;49.344;6.240;2022-12-18T06:08:45;-10.90;99.90
31837;DHT22;18401;49.344;6.240;2022-12-18T06:11:11;-10.90;99.90
31837;DHT22;18401;49.344;6.240;2022-12-18T06:13:37;-10.90;99.90
31837;DHT22;18401;49.344;6.240;2022-12-18T06:16:06;-10.90;99.90
31837;DHT22;18401;49.344;6.240;2022-12-18T06:18:32;-11.00;99.90
31837;DHT22;18401;49.344;6.240;2022-12-18T06:20:59;-10.90;99.90
31837;DHT22;18401;49.344;6.240;2022-12-18T06:23:25;-10.90;99.90
31837;DHT22;18401;49.344;6.240;2022-12-18T06:25:51;-10.80;99.90
31837;DHT22;18401;49.344;6.240;2022-12-18T06:28:18;-10.80;99.90
31837;DHT22;18401;49.344;6.240;2022-12-18T06:30:44;-10.70;99.90
31837;DHT22;18401;49.344;6.240;2022-12-18T06:33:10;-10.70;99.90
31837;DHT22;18401;49.344;6.240;2022-12-18T06:35:36;-10.70;99.90
31837;DHT22;18401;49.344;6.240;2022-12-18T06:38:02;-10.70;99.90
31837;DHT22;18401;49.344;6.240;2022-12-18T06:40:28;-10.80;99.90
31837;DHT22;18401;49.344;6.240;2022-12-18T06:42:54;-10.80;99.90
31837;DHT22;18401;49.344;6.240;2022-12-18T06:45:19;-10.90;99.90
31837;DHT22;18401;49.344;6.240;2022-12-18T06:47:45;-10.80;99.90
31837;DHT22;18401;49.344;6.240;2022-12-18T06:50:11;-10.90;99.90
31837;DHT22;18401;49.344;6.240;2022-12-18T06:52:38;-10.90;99.90
31837;DHT22;18401;49.344;6.240;2022-12-18T06:55:10;-10.90;99.90
31837;DHT22;18401;49.344;6.240;2022-12-18T06:57:37;-10.90;99.90
31837;DHT22;18401;49.344;6.240;2022-12-18T07:00:04;-10.80;99.90
31837;DHT22;18401;49.344;6.240;2022-12-18T07:02:30;-10.80;99.90
31837;DHT22;18401;49.344;6.240;2022-12-18T07:04:56;-10.80;99.90
31837;DHT22;18401;49.344;6.240;2022-12-18T07:07:22;-10.80;99.90
31837;DHT22;18401;49.344;6.240;2022-12-18T07:09:49;-10.80;99.90
31837;DHT22;18401;49.344;6.240;2022-12-18T07:12:15;-10.80;99.90
31837;DHT22;18401;49.344;6.240;2022-12-18T07:14:41;-10.70;99.90
31837;DHT22;18401;49.344;6.240;2022-12-18T07:17:06;-10.60;99.90
31837;DHT22;18401;49.344;6.240;2022-12-18T07:19:33;-10.60;99.90
31837;DHT22;18401;49.344;6.240;2022-12-18T07:21:58;-10.60;99.90
31837;DHT22;18401;49.344;6.240;2022-12-18T07:24:24;-10.50;99.90
31837;DHT22;18401;49.344;6.240;2022-12-18T07:26:50;-10.40;99.90
31837;DHT22;18401;49.344;6.240;2022-12-18T07:29:15;-10.40;99.90
31837;DHT22;18401;49.344;6.240;2022-12-18T07:31:41;-10.30;99.90
31837;DHT22;18401;49.344;6.240;2022-12-18T07:34:10;-10.20;99.90
31837;DHT22;18401;49.344;6.240;2022-12-18T07:36:37;-10.10;99.90
31837;DHT22;18401;49.344;6.240;2022-12-18T07:39:02;-10.00;99.90
31837;DHT22;18401;49.344;6.240;2022-12-18T07:41:28;-10.00;99.90
31837;DHT22;18401;49.344;6.240;2022-12-18T07:43:54;-9.90;99.90
31837;DHT22;18401;49.344;6.240;2022-12-18T07:46:20;-9.70;99.90
31837;DHT22;18401;49.344;6.240;2022-12-18T07:48:45;-9.60;99.90
31837;DHT22;18401;49.344;6.240;2022-12-18T07:51:11;-9.40;99.90
31837;DHT22;18401;49.344;6.240;2022-12-18T07:53:37;-9.10;99.90
31837;DHT22;18401;49.344;6.240;2022-12-18T07:56:05;-8.80;99.90
31837;DHT22;18401;49.344;6.240;2022-12-18T07:58:32;-8.50;99.90
31837;DHT22;18401;49.344;6.240;2022-12-18T08:01:08;-8.10;99.90
31837;DHT22;18401;49.344;6.240;2022-12-18T08:03:35;-7.70;99.90
31837;DHT22;18401;49.344;6.240;2022-12-18T08:06:02;-7.40;99.90
31837;DHT22;18401;49.344;6.240;2022-12-18T08:08:28;-7.00;99.90
31837;DHT22;18401;49.344;6.240;2022-12-18T08:10:54;-6.80;99.90
31837;DHT22;18401;49.344;6.240;2022-12-18T08:13:20;-6.60;99.90
31837;DHT22;18401;49.344;6.240;2022-12-18T08:15:46;-6.50;99.90
31837;DHT22;18401;49.344;6.240;2022-12-18T08:18:12;-6.50;99.90
31837;DHT22;18401;49.344;6.240;2022-12-18T08:20:37;-6.50;99.90
31837;DHT22;18401;49.344;6.240;2022-12-18T08:23:03;-6.60;99.90
31837;DHT22;18401;49.344;6.240;2022-12-18T08:25:29;-6.60;99.90
31837;DHT22;18401;49.344;6.240;2022-12-18T08:27:54;-6.60;99.90
31837;DHT22;18401;49.344;6.240;2022-12-18T08:30:22;-6.60;99.90
31837;DHT22;18401;49.344;6.240;2022-12-18T08:32:51;-6.60;99.90
31837;DHT22;18401;49.344;6.240;2022-12-18T08:35:18;-6.60;99.90
31837;DHT22;18401;49.344;6.240;2022-12-18T08:37:43;-6.60;99.90
31837;DHT22;18401;49.344;6.240;2022-12-18T08:40:09;-6.50;99.90
31837;DHT22;18401;49.344;6.240;2022-12-18T08:42:35;-6.50;99.90
31837;DHT22;18401;49.344;6.240;2022-12-18T08:45:19;-6.40;99.90
31837;DHT22;18401;49.344;6.240;2022-12-18T08:47:45;-6.40;99.90
31837;DHT22;18401;49.344;6.240;2022-12-18T08:50:11;-6.40;99.90
31837;DHT22;18401;49.344;6.240;2022-12-18T08:52:37;-6.30;99.90
31837;DHT22;18401;49.344;6.240;2022-12-18T08:55:03;-6.30;99.90
31837;DHT22;18401;49.344;6.240;2022-12-18T08:57:29;-6.30;99.90
31837;DHT22;18401;49.344;6.240;2022-12-18T08:59:55;-6.20;99.90
31837;DHT22;18401;49.344;6.240;2022-12-18T09:02:20;-6.20;99.90
31837;DHT22;18401;49.344;6.240;2022-12-18T09:04:47;-6.10;99.90
31837;DHT22;18401;49.344;6.240;2022-12-18T09:07:13;-6.10;99.90
31837;DHT22;18401;49.344;6.240;2022-12-18T09:09:38;-6.20;99.90
31837;DHT22;18401;49.344;6.240;2022-12-18T09:12:04;-6.10;99.90
31837;DHT22;18401;49.344;6.240;2022-12-18T09:14:30;-6.10;99.90
31837;DHT22;18401;49.344;6.240;2022-12-18T09:16:55;-6.10;99.90
31837;DHT22;18401;49.344;6.240;2022-12-18T09:19:21;-6.10;99.90
31837;DHT22;18401;49.344;6.240;2022-12-18T09:21:47;-6.10;99.90
31837;DHT22;18401;49.344;6.240;2022-12-18T09:24:16;-6.20;99.90
31837;DHT22;18401;49.344;6.240;2022-12-18T09:26:42;-6.30;99.90
31837;DHT22;18401;49.344;6.240;2022-12-18T09:29:08;-6.30;99.90
31837;DHT22;18401;49.344;6.240;2022-12-18T09:31:35;-6.20;99.90
31837;DHT22;18401;49.344;6.240;2022-12-18T09:34:00;-6.00;99.90
31837;DHT22;18401;49.344;6.240;2022-12-18T09:36:26;-5.90;99.90
31837;DHT22;18401;49.344;6.240;2022-12-18T09:38:52;-5.80;99.90
31837;DHT22;18401;49.344;6.240;2022-12-18T09:44:03;-5.70;99.90
31837;DHT22;18401;49.344;6.240;2022-12-18T09:46:33;-5.60;99.90
31837;DHT22;18401;49.344;6.240;2022-12-18T09:49:03;-5.70;99.90
31837;DHT22;18401;49.344;6.240;2022-12-18T09:51:50;-5.70;99.90
31837;DHT22;18401;49.344;6.240;2022-12-18T09:54:29;-5.70;99.90
31837;DHT22;18401;49.344;6.240;2022-12-18T09:56:57;-5.60;99.90
31837;DHT22;18401;49.344;6.240;2022-12-18T09:59:30;-5.50;99.90
31837;DHT22;18401;49.344;6.240;2022-12-18T10:01:57;-5.50;99.90
31837;DHT22;18401;49.344;6.240;2022-12-18T10:04:24;-5.40;99.90
31837;DHT22;18401;49.344;6.240;2022-12-18T10:07:05;-5.30;99.90
31837;DHT22;18401;49.344;6.240;2022-12-18T10:09:47;-5.40;99.90
31837;DHT22;18401;49.344;6.240;2022-12-18T10:12:56;-5.40;99.90
31837;DHT22;18401;49.344;6.240;2022-12-18T10:15:34;-5.50;99.90
31837;DHT22;18401;49.344;6.240;2022-12-18T10:18:31;-5.40;99.90
31837;DHT22;18401;49.344;6.240;2022-12-18T10:27:06;-5.40;99.90
31837;DHT22;18401;49.344;6.240;2022-12-18T10:29:34;-5.50;99.90
31837;DHT22;18401;49.344;6.240;2022-12-18T10:32:00;-5.40;99.90
31837;DHT22;18401;49.344;6.240;2022-12-18T10:34:25;-5.40;99.90
31837;DHT22;18401;49.344;6.240;2022-12-18T10:36:51;-5.40;99.90
31837;DHT22;18401;49.344;6.240;2022-12-18T10:39:22;-5.30;99.90
31837;DHT22;18401;49.344;6.240;2022-12-18T10:41:52;-5.20;99.90
31837;DHT22;18401;49.344;6.240;2022-12-18T10:44:34;-5.20;99.90
31837;DHT22;18401;49.344;6.240;2022-12-18T10:47:04;-5.10;99.90
31837;DHT22;18401;49.344;6.240;2022-12-18T10:49:33;-5.00;99.90
31837;DHT22;18401;49.344;6.240;2022-12-18T10:52:21;-5.00;99.90
31837;DHT22;18401;49.344;6.240;2022-12-18T10:54:59;-4.90;99.90
31837;DHT22;18401;49.344;6.240;2022-12-18T10:59:59;-4.70;99.90
31837;DHT22;18401;49.344;6.240;2022-12-18T11:02:34;-4.60;99.90
31837;DHT22;18401;49.344;6.240;2022-12-18T11:05:01;-4.60;99.90
31837;DHT22;18401;49.344;6.240;2022-12-18T11:07:46;-4.50;99.90
31837;DHT22;18401;49.344;6.240;2022-12-18T11:10:17;-4.50;99.90
31837;DHT22;18401;49.344;6.240;2022-12-18T11:12:43;-4.40;99.90
31837;DHT22;18401;49.344;6.240;2022-12-18T11:15:20;-4.40;99.90
31837;DHT22;18401;49.344;6.240;2022-12-18T11:17:49;-4.40;99.90
31837;DHT22;18401;49.344;6.240;2022-12-18T11:20:31;-4.40;99.90
31837;DHT22;18401;49.344;6.240;2022-12-18T11:23:04;-4.30;99.90
31837;DHT22;18401;49.344;6.240;2022-12-18T11:25:31;-4.30;99.90
31837;DHT22;18401;49.344;6.240;2022-12-18T11:31:22;-4.20;99.90
31837;DHT22;18401;49.344;6.240;2022-12-18T11:34:07;-4.10;99.90
31837;DHT22;18401;49.344;6.240;2022-12-18T11:36:43;-3.90;99.90
31837;DHT22;18401;49.344;6.240;2022-12-18T11:42:22;-3.80;99.90
31837;DHT22;18401;49.344;6.240;2022-12-18T11:44:56;-3.70;99.90
31837;DHT22;18401;49.344;6.240;2022-12-18T11:51:02;-3.50;99.90
31837;DHT22;18401;49.344;6.240;2022-12-18T11:53:03;-3.20;99.90
31837;DHT22;18401;49.344;6.240;2022-12-18T11:55:37;-3.00;99.90
31837;DHT22;18401;49.344;6.240;2022-12-18T12:11:23;-3.00;99.90
31837;DHT22;18401;49.344;6.240;2022-12-18T12:14:26;-3.00;99.90
31837;DHT22;18401;49.344;6.240;2022-12-18T12:24:52;-3.10;99.90
31837;DHT22;18401;49.344;6.240;2022-12-18T12:27:23;-3.10;99.90
31837;DHT22;18401;49.344;6.240;2022-12-18T12:38:26;-2.80;99.90
31837;DHT22;18401;49.344;6.240;2022-12-18T12:41:04;-2.90;99.90
31837;DHT22;18401;49.344;6.240;2022-12-18T12:43:41;-3.00;99.90
31837;DHT22;18401;49.344;6.240;2022-12-18T12:46:13;-3.10;99.90
31837;DHT22;18401;49.344;6.240;2022-12-18T12:49:00;-3.10;99.90
31837;DHT22;18401;49.344;6.240;2022-12-18T12:51:30;-3.10;99.90
31837;DHT22;18401;49.344;6.240;2022-12-18T12:53:58;-3.10;99.90
31837;DHT22;18401;49.344;6.240;2022-12-18T12:56:32;-2.90;99.90
31837;DHT22;18401;49.344;6.240;2022-12-18T13:01:55;-3.00;99.90
31837;DHT22;18401;49.344;6.240;2022-12-18T13:15:42;-3.10;99.90
31837;DHT22;18401;49.344;6.240;2022-12-18T13:21:04;-3.00;99.90
31837;DHT22;18401;49.344;6.240;2022-12-18T13:23:31;-2.90;99.90
31837;DHT22;18401;49.344;6.240;2022-12-18T13:31:13;-3.00;99.90
31837;DHT22;18401;49.344;6.240;2022-12-18T13:33:44;-3.00;99.90
31837;DHT22;18401;49.344;6.240;2022-12-18T13:36:15;-3.00;99.90
31837;DHT22;18401;49.344;6.240;2022-12-18T13:38:42;-3.00;99.90
31837;DHT22;18401;49.344;6.240;2022-12-18T13:43:54;-3.00;99.90
31837;DHT22;18401;49.344;6.240;2022-12-18T13:46:42;-3.10;99.90
31837;DHT22;18401;49.344;6.240;2022-12-18T13:51:46;-3.10;99.90
31837;DHT22;18401;49.344;6.240;2022-12-18T13:56:58;-3.20;99.90
31837;DHT22;18401;49.344;6.240;2022-12-18T13:59:36;-3.20;99.90
31837;DHT22;18401;49.344;6.240;2022-12-18T14:04:38;-3.20;99.90
31837;DHT22;18401;49.344;6.240;2022-12-18T14:07:06;-3.10;99.90
31837;DHT22;18401;49.344;6.240;2022-12-18T14:09:39;-3.10;99.90
31837;DHT22;18401;49.344;6.240;2022-12-18T14:12:06;-3.10;99.90
31837;DHT22;18401;49.344;6.240;2022-12-18T14:14:52;-3.10;99.90
31837;DHT22;18401;49.344;6.240;2022-12-18T14:17:18;-3.10;99.90
31837;DHT22;18401;49.344;6.240;2022-12-18T14:19:49;-3.10;99.90
31837;DHT22;18401;49.344;6.240;2022-12-18T14:22:25;-3.10;99.90
31837;DHT22;18401;49.344;6.240;2022-12-18T14:27:45;-3.10;99.90
31837;DHT22;18401;49.344;6.240;2022-12-18T14:33:04;-3.10;99.90
31837;DHT22;18401;49.344;6.240;2022-12-18T14:35:32;-3.10;99.90
31837;DHT22;18401;49.344;6.240;2022-12-18T14:38:20;-3.20;99.90
31837;DHT22;18401;49.344;6.240;2022-12-18T14:40:51;-3.20;99.90
31837;DHT22;18401;49.344;6.240;2022-12-18T14:43:20;-3.20;99.90
31837;DHT22;18401;49.344;6.240;2022-12-18T14:45:46;-3.20;99.90
31837;DHT22;18401;49.344;6.240;2022-12-18T14:50:44;-3.20;99.90
31837;DHT22;18401;49.344;6.240;2022-12-18T14:56:02;-3.20;99.90
31837;DHT22;18401;49.344;6.240;2022-12-18T14:58:29;-3.20;99.90
31837;DHT22;18401;49.344;6.240;2022-12-18T15:00:54;-3.20;99.90
31837;DHT22;18401;49.344;6.240;2022-12-18T15:03:21;-3.20;99.90
31837;DHT22;18401;49.344;6.240;2022-12-18T15:05:47;-3.20;99.90
31837;DHT22;18401;49.344;6.240;2022-12-18T15:08:35;-3.20;99.90
31837;DHT22;18401;49.344;6.240;2022-12-18T15:11:01;-3.30;99.90
31837;DHT22;18401;49.344;6.240;2022-12-18T15:13:27;-3.30;99.90
31837;DHT22;18401;49.344;6.240;2022-12-18T15:15:55;-3.30;99.90
31837;DHT22;18401;49.344;6.240;2022-12-18T15:18:29;-3.20;99.90
31837;DHT22;18401;49.344;6.240;2022-12-18T15:20:57;-3.20;99.90
31837;DHT22;18401;49.344;6.240;2022-12-18T15:26:13;-3.20;99.90
31837;DHT22;18401;49.344;6.240;2022-12-18T15:28:56;-3.20;99.90
31837;DHT22;18401;49.344;6.240;2022-12-18T15:36:19;-3.20;99.90
31837;DHT22;18401;49.344;6.240;2022-12-18T15:38:53;-3.20;99.90
31837;DHT22;18401;49.344;6.240;2022-12-18T15:41:21;-3.20;99.90
31837;DHT22;18401;49.344;6.240;2022-12-18T15:43:48;-3.30;99.90
31837;DHT22;18401;49.344;6.240;2022-12-18T15:46:18;-3.20;99.90
31837;DHT22;18401;49.344;6.240;2022-12-18T15:48:46;-3.20;99.90
31837;DHT22;18401;49.344;6.240;2022-12-18T15:51:24;-3.30;99.90
31837;DHT22;18401;49.344;6.240;2022-12-18T15:53:53;-3.30;99.90
31837;DHT22;18401;49.344;6.240;2022-12-18T15:56:20;-3.30;99.90
31837;DHT22;18401;49.344;6.240;2022-12-18T15:59:14;-3.30;99.90
31837;DHT22;18401;49.344;6.240;2022-12-18T16:01:40;-3.30;99.90
31837;DHT22;18401;49.344;6.240;2022-12-18T16:04:06;-3.30;99.90
31837;DHT22;18401;49.344;6.240;2022-12-18T16:06:34;-3.30;99.90
31837;DHT22;18401;49.344;6.240;2022-12-18T16:09:00;-3.30;99.90
31837;DHT22;18401;49.344;6.240;2022-12-18T16:11:28;-3.30;99.90
31837;DHT22;18401;49.344;6.240;2022-12-18T16:16:37;-3.30;99.90
31837;DHT22;18401;49.344;6.240;2022-12-18T16:19:03;-3.30;99.90
31837;DHT22;18401;49.344;6.240;2022-12-18T16:21:28;-3.30;99.90
31837;DHT22;18401;49.344;6.240;2022-12-18T16:23:54;-3.20;99.90
31837;DHT22;18401;49.344;6.240;2022-12-18T16:26:20;-3.20;99.90
31837;DHT22;18401;49.344;6.240;2022-12-18T16:28:45;-3.30;99.90
31837;DHT22;18401;49.344;6.240;2022-12-18T16:31:11;-3.30;99.90
31837;DHT22;18401;49.344;6.240;2022-12-18T16:33:37;-3.20;99.90
31837;DHT22;18401;49.344;6.240;2022-12-18T16:36:02;-3.20;99.90
31837;DHT22;18401;49.344;6.240;2022-12-18T16:38:28;-3.30;99.90
31837;DHT22;18401;49.344;6.240;2022-12-18T16:40:54;-3.30;99.90
31837;DHT22;18401;49.344;6.240;2022-12-18T16:43:40;-3.30;99.90
31837;DHT22;18401;49.344;6.240;2022-12-18T16:46:05;-3.30;99.90
31837;DHT22;18401;49.344;6.240;2022-12-18T16:48:34;-3.30;99.90
31837;DHT22;18401;49.344;6.240;2022-12-18T16:51:01;-3.40;99.90
31837;DHT22;18401;49.344;6.240;2022-12-18T16:53:32;-3.30;99.90
31837;DHT22;18401;49.344;6.240;2022-12-18T16:55:58;-3.20;99.90
31837;DHT22;18401;49.344;6.240;2022-12-18T16:58:24;-3.20;99.90
31837;DHT22;18401;49.344;6.240;2022-12-18T17:00:49;-3.20;99.90
31837;DHT22;18401;49.344;6.240;2022-12-18T17:03:15;-3.20;99.90
31837;DHT22;18401;49.344;6.240;2022-12-18T17:05:41;-3.10;99.90
31837;DHT22;18401;49.344;6.240;2022-12-18T17:08:07;-3.10;99.90
31837;DHT22;18401;49.344;6.240;2022-12-18T17:10:35;-3.00;99.90
31837;DHT22;18401;49.344;6.240;2022-12-18T17:13:01;-3.00;99.90
31837;DHT22;18401;49.344;6.240;2022-12-18T17:15:27;-2.90;99.90
31837;DHT22;18401;49.344;6.240;2022-12-18T17:17:52;-2.90;99.90
31837;DHT22;18401;49.344;6.240;2022-12-18T17:20:18;-2.90;99.90
31837;DHT22;18401;49.344;6.240;2022-12-18T17:22:44;-2.90;99.90
31837;DHT22;18401;49.344;6.240;2022-12-18T17:25:09;-2.80;99.90
31837;DHT22;18401;49.344;6.240;2022-12-18T17:27:35;-2.80;99.90
31837;DHT22;18401;49.344;6.240;2022-12-18T17:30:01;-2.80;99.90
31837;DHT22;18401;49.344;6.240;2022-12-18T17:32:27;-2.80;99.90
31837;DHT22;18401;49.344;6.240;2022-12-18T17:34:53;-2.80;99.90
31837;DHT22;18401;49.344;6.240;2022-12-18T17:37:18;-2.70;99.90
31837;DHT22;18401;49.344;6.240;2022-12-18T17:39:44;-2.70;99.90
31837;DHT22;18401;49.344;6.240;2022-12-18T17:42:10;-2.70;99.90
31837;DHT22;18401;49.344;6.240;2022-12-18T17:44:36;-2.80;99.90
31837;DHT22;18401;49.344;6.240;2022-12-18T17:47:03;-2.90;99.90